Time;durP1;ratioP1;P1;durP2;ratioP2;P2;SDS_P1;SDS_P2;PMS_P1;PMS_P2;Temp;Humidity;BMP_temperature;BMP_pressure;BME280_temperature;BME280_humidity;BME280_pressure;Samples;Min_cycle;Max_cycle;Signal;HPM_P1;HPM_P2
2023/10/27 00:00:36;;;;;;;3.40;1.27;;;;;;;8.78;100.00;99185.69;4982146;28;20110;-80
2023/10/27 00:03:01;;;;;;;4.32;1.23;;;;;;;8.77;100.00;99183.19;4932664;28;20067;-81
2023/10/27 00:05:27;;;;;;;4.70;0.90;;;;;;;8.76;100.00;99181.56;4929992;28;20038;-81
2023/10/27 00:07:52;;;;;;;5.00;0.93;;;;;;;8.72;100.00;99169.66;4913248;28;20123;-81
2023/10/27 00:10:17;;;;;;;4.20;0.77;;;;;;;8.79;100.00;99182.00;4955604;28;20028;-81
2023/10/27 00:12:43;;;;;;;4.47;0.87;;;;;;;8.78;100.00;99183.03;4930295;28;20818;-81
2023/10/27 00:15:09;;;;;;;3.80;1.33;;;;;;;8.74;100.00;99172.94;4988065;28;20051;-80
2023/10/27 00:17:35;;;;;;;5.68;1.50;;;;;;;8.83;100.00;99172.63;4935711;28;20279;-81
2023/10/27 00:20:02;;;;;;;2.85;0.90;;;;;;;8.65;100.00;99165.06;4984762;28;20030;-82
2023/10/27 00:22:28;;;;;;;2.28;0.60;;;;;;;8.77;100.00;99157.41;4982882;28;20030;-81
2023/10/27 00:24:53;;;;;;;1.13;0.60;;;;;;;8.70;100.00;99151.19;5027718;28;20024;-81
2023/10/27 00:27:20;;;;;;;3.03;0.73;;;;;;;8.74;100.00;99164.97;4994679;28;20037;-82
2023/10/27 00:29:46;;;;;;;3.00;0.88;;;;;;;8.71;100.00;99152.88;4979257;28;20096;-81
2023/10/27 00:32:11;;;;;;;2.47;0.73;;;;;;;8.78;100.00;99156.41;5007689;28;20025;-82
2023/10/27 00:34:37;;;;;;;3.20;0.85;;;;;;;8.79;100.00;99150.06;5011192;28;20541;-81
2023/10/27 00:37:02;;;;;;;1.53;0.83;;;;;;;8.72;100.00;99140.38;4914893;28;20028;-82
2023/10/27 00:39:28;;;;;;;4.23;0.50;;;;;;;8.68;100.00;99141.75;4973985;28;20334;-82
2023/10/27 00:41:53;;;;;;;2.30;0.63;;;;;;;8.72;100.00;99146.50;4994918;28;20269;-80
2023/10/27 00:44:18;;;;;;;1.53;0.60;;;;;;;8.78;100.00;99148.44;4994487;28;20041;-82
2023/10/27 00:46:44;;;;;;;1.50;0.90;;;;;;;8.75;100.00;99137.31;4952974;28;20047;-82
2023/10/27 00:49:11;;;;;;;1.65;0.40;;;;;;;8.82;100.00;99146.19;4962304;28;20060;-82
2023/10/27 00:51:36;;;;;;;4.03;0.50;;;;;;;8.78;100.00;99143.09;4994688;28;20034;-82
2023/10/27 00:54:02;;;;;;;1.70;1.08;;;;;;;8.74;100.00;99136.50;4951435;28;20021;-82
2023/10/27 00:56:28;;;;;;;1.75;0.65;;;;;;;8.77;100.00;99133.47;4964404;28;20031;-82
2023/10/27 00:58:57;;;;;;;1.25;0.82;;;;;;;8.61;100.00;99118.56;4995992;28;20024;-82
2023/10/27 01:01:22;;;;;;;2.22;0.95;;;;;;;8.68;100.00;99126.63;4970207;28;20061;-82
2023/10/27 01:03:48;;;;;;;2.43;0.83;;;;;;;8.72;100.00;99129.72;5026888;28;20124;-82
2023/10/27 01:06:14;;;;;;;2.83;0.55;;;;;;;8.52;100.00;99114.41;4919390;28;20032;-82
2023/10/27 01:08:40;;;;;;;2.47;1.10;;;;;;;8.48;100.00;99130.94;4935262;28;20525;-82
2023/10/27 01:11:08;;;;;;;3.70;1.10;;;;;;;8.57;100.00;99137.75;4913667;28;20589;-81
2023/10/27 01:13:33;;;;;;;1.70;0.52;;;;;;;8.57;100.00;99125.28;4952979;28;20060;-82
2023/10/27 01:15:59;;;;;;;5.27;1.00;;;;;;;8.63;100.00;99126.38;4968751;28;20044;-82
2023/10/27 01:18:24;;;;;;;9.38;1.60;;;;;;;8.68;100.00;99125.78;4961894;28;20038;-82
2023/10/27 01:20:50;;;;;;;4.10;0.83;;;;;;;8.41;100.00;99115.72;4927203;28;20031;-82
2023/10/27 01:23:15;;;;;;;3.60;0.63;;;;;;;8.48;100.00;99125.59;4922760;28;20316;-82
2023/10/27 01:25:40;;;;;;;0.73;0.50;;;;;;;8.56;100.00;99136.13;4929970;28;20028;-82
2023/10/27 01:28:08;;;;;;;2.73;1.00;;;;;;;8.51;100.00;99134.03;4929711;28;20063;-82
2023/10/27 01:30:34;;;;;;;1.67;0.85;;;;;;;8.60;100.00;99146.19;5014137;28;20036;-82
2023/10/27 01:33:00;;;;;;;;;;;;;;;8.28;100.00;99134.13;5013822;28;20072;-81
2023/10/27 01:35:25;;;;;;;1.98;0.82;;;;;;;8.45;100.00;99137.41;5016115;28;19909;-81
2023/10/27 01:37:51;;;;;;;3.10;0.60;;;;;;;8.36;100.00;99141.19;4985330;28;20030;-82
2023/10/27 01:40:16;;;;;;;2.57;0.90;;;;;;;8.30;100.00;99140.09;4930566;28;20408;-82
2023/10/27 01:42:41;;;;;;;1.73;0.73;;;;;;;8.40;100.00;99130.00;4938033;28;20528;-81
2023/10/27 01:45:08;;;;;;;1.67;0.70;;;;;;;8.41;100.00;99128.19;5002488;28;20375;-82
2023/10/27 01:47:33;;;;;;;;;;;;;;;8.17;100.00;99116.00;4942746;28;20158;-82
2023/10/27 01:49:59;;;;;;;1.60;0.40;;;;;;;8.15;100.00;99104.75;5013173;28;19975;-81
2023/10/27 01:52:24;;;;;;;3.53;0.52;;;;;;;8.19;100.00;99101.53;4989742;28;20072;-81
2023/10/27 01:54:50;;;;;;;4.80;0.70;;;;;;;8.41;100.00;99105.06;5031540;28;20022;-81
2023/10/27 01:57:16;;;;;;;;;;;;;;;8.52;100.00;99111.75;5030883;28;20125;-81
2023/10/27 01:59:41;;;;;;;3.15;0.90;;;;;;;8.47;100.00;99094.69;5030646;28;19953;-81
2023/10/27 02:02:06;;;;;;;1.33;0.50;;;;;;;8.52;100.00;99098.44;4973020;28;20032;-81
2023/10/27 02:04:35;;;;;;;1.17;0.50;;;;;;;8.38;100.00;99083.31;4940896;28;20028;-81
2023/10/27 02:07:03;;;;;;;1.45;0.40;;;;;;;8.44;100.00;99094.06;4925086;28;20404;-81
2023/10/27 02:09:30;;;;;;;1.17;0.32;;;;;;;8.50;100.00;99094.31;4967257;28;20510;-81
2023/10/27 02:11:55;;;;;;;2.70;0.47;;;;;;;8.31;100.00;99093.91;4930356;28;20138;-81
2023/10/27 02:14:21;;;;;;;2.38;0.70;;;;;;;8.33;100.00;99093.69;5001847;28;20480;-81
2023/10/27 02:16:46;;;;;;;0.70;0.40;;;;;;;8.14;100.00;99076.50;4950828;28;20020;-80
2023/10/27 02:19:13;;;;;;;6.37;0.87;;;;;;;8.09;100.00;99086.88;4987836;28;20080;-80
2023/10/27 02:21:39;;;;;;;1.05;0.52;;;;;;;8.33;100.00;99104.31;4977054;28;20307;-81
2023/10/27 02:24:05;;;;;;;0.60;0.35;;;;;;;8.47;100.00;99098.16;5003499;28;20041;-81
2023/10/27 02:26:30;;;;;;;0.75;0.50;;;;;;;8.50;100.00;99099.63;4972604;28;20029;-81
2023/10/27 02:28:56;;;;;;;3.57;0.70;;;;;;;8.31;100.00;99083.25;4914510;28;20088;-81
2023/10/27 02:31:22;;;;;;;3.45;0.88;;;;;;;8.50;100.00;99100.47;4944403;28;20040;-81
2023/10/27 02:33:48;;;;;;;0.73;0.68;;;;;;;8.52;100.00;99095.78;4933517;28;20535;-81
2023/10/27 02:36:14;;;;;;;1.77;0.80;;;;;;;8.51;100.00;99093.31;4921413;28;20070;-81
2023/10/27 02:38:39;;;;;;;1.33;0.70;;;;;;;8.43;100.00;99075.63;4997504;28;20030;-79
2023/10/27 02:41:08;;;;;;;2.30;1.20;;;;;;;8.43;100.00;99092.41;4972983;28;20417;-81
2023/10/27 02:43:34;;;;;;;2.90;0.90;;;;;;;8.45;100.00;99081.56;4998108;28;20076;-81
2023/10/27 02:46:04;;;;;;;4.57;0.60;;;;;;;8.35;100.00;99081.03;4929204;28;20083;-81
2023/10/27 02:48:29;;;;;;;1.50;0.80;;;;;;;8.40;100.00;99092.78;4930511;28;20039;-81
2023/10/27 02:50:54;;;;;;;4.20;1.03;;;;;;;8.16;100.00;99088.59;4911025;28;20028;-82
2023/10/27 02:53:20;;;;;;;3.00;0.90;;;;;;;8.38;100.00;99089.47;4978402;28;20034;-80
2023/10/27 02:55:45;;;;;;;3.97;0.80;;;;;;;8.06;100.00;99084.63;5030559;28;20024;-82
2023/10/27 02:58:11;;;;;;;1.83;0.77;;;;;;;8.26;100.00;99082.97;4996813;28;20041;-80
2023/10/27 03:00:41;;;;;;;2.58;0.70;;;;;;;8.25;100.00;99073.38;5030532;28;20426;-82
2023/10/27 03:03:06;;;;;;;2.92;0.82;;;;;;;8.35;100.00;99075.72;4997485;28;20038;-81
2023/10/27 03:05:31;;;;;;;8.27;1.27;;;;;;;8.33;100.00;99078.56;5030271;28;20299;-81
2023/10/27 03:07:57;;;;;;;4.77;0.73;;;;;;;8.45;100.00;99071.78;4982818;28;20134;-81
2023/10/27 03:10:22;;;;;;;3.40;0.63;;;;;;;8.32;100.00;99068.94;4995016;28;20072;-82
2023/10/27 03:12:48;;;;;;;1.13;0.90;;;;;;;8.36;100.00;99075.53;4990594;28;20053;-81
2023/10/27 03:15:13;;;;;;;1.63;0.90;;;;;;;8.23;100.00;99068.22;4931170;28;20728;-81
2023/10/27 03:17:38;;;;;;;3.15;0.75;;;;;;;8.31;100.00;99067.31;4979577;28;20104;-82
2023/10/27 03:20:05;;;;;;;4.00;0.97;;;;;;;8.37;100.00;99071.84;5012507;28;20687;-82
2023/10/27 03:22:31;;;;;;;3.15;0.80;;;;;;;8.49;100.00;99082.84;4929962;28;20088;-82
2023/10/27 03:24:56;;;;;;;4.57;0.90;;;;;;;8.47;100.00;99076.06;4996956;28;20026;-82
2023/10/27 03:27:22;;;;;;;1.42;0.90;;;;;;;8.17;100.00;99061.03;4922963;28;20518;-82
2023/10/27 03:29:47;;;;;;;4.07;0.83;;;;;;;8.34;100.00;99082.88;4912495;28;20028;-81
2023/10/27 03:32:12;;;;;;;2.73;0.60;;;;;;;8.40;100.00;99076.81;4997511;28;20277;-82
2023/10/27 03:34:38;;;;;;;2.73;0.60;;;;;;;8.37;100.00;99079.84;5008464;28;20034;-82
2023/10/27 03:37:04;;;;;;;1.33;0.80;;;;;;;8.33;100.00;99077.75;4916077;28;20119;-82
2023/10/27 03:39:30;;;;;;;7.33;1.03;;;;;;;8.29;100.00;99069.34;4996819;28;20553;-83
2023/10/27 03:41:56;;;;;;;2.57;0.63;;;;;;;8.11;100.00;99060.94;5012910;28;20034;-81
2023/10/27 03:44:21;;;;;;;3.53;0.60;;;;;;;8.08;100.00;99069.28;4929496;28;20036;-82
2023/10/27 03:46:48;;;;;;;3.40;0.90;;;;;;;8.12;100.00;99078.53;5013246;28;20513;-81
2023/10/27 03:49:14;;;;;;;0.95;0.47;;;;;;;8.26;100.00;99069.69;4930770;28;20440;-82
2023/10/27 03:51:40;;;;;;;4.47;1.08;;;;;;;8.32;100.00;99076.09;4941198;28;20070;-82
2023/10/27 03:54:05;;;;;;;1.77;0.50;;;;;;;8.34;100.00;99077.56;4927816;28;20044;-81
2023/10/27 03:56:32;;;;;;;1.95;0.65;;;;;;;8.31;100.00;99072.63;4928565;28;20028;-82
2023/10/27 03:58:58;;;;;;;1.33;0.68;;;;;;;8.13;100.00;99065.06;4926885;28;20040;-81
2023/10/27 04:01:23;;;;;;;4.18;0.75;;;;;;;8.17;100.00;99076.97;4936925;28;20052;-82
2023/10/27 04:03:49;;;;;;;1.77;0.67;;;;;;;8.30;100.00;99070.97;4936231;28;20060;-80
2023/10/27 04:06:14;;;;;;;8.67;1.33;;;;;;;8.30;100.00;99062.16;4943099;28;20079;-80
2023/10/27 04:08:40;;;;;;;1.38;0.73;;;;;;;8.45;100.00;99076.25;4969384;28;20033;-81
2023/10/27 04:11:05;;;;;;;5.83;0.90;;;;;;;8.50;100.00;99067.69;4940492;28;20047;-81
2023/10/27 04:13:30;;;;;;;4.57;1.13;;;;;;;8.28;100.00;99062.34;4917201;28;20390;-81
2023/10/27 04:15:56;;;;;;;0.70;0.70;;;;;;;8.26;100.00;99064.38;4981711;28;20053;-81
2023/10/27 04:18:21;;;;;;;3.50;0.90;;;;;;;8.35;100.00;99071.22;4958848;28;20036;-81
2023/10/27 04:20:50;;;;;;;2.47;0.90;;;;;;;8.39;100.00;99074.34;4927033;28;20034;-81
2023/10/27 04:23:15;;;;;;;2.88;1.00;;;;;;;8.26;100.00;99064.38;4924418;28;20044;-82
2023/10/27 04:25:41;;;;;;;0.87;0.63;;;;;;;8.30;100.00;99065.66;4937139;28;20030;-81
2023/10/27 04:28:06;;;;;;;1.80;0.60;;;;;;;8.33;100.00;99075.91;4934234;28;20055;-81
2023/10/27 04:30:33;;;;;;;2.83;0.67;;;;;;;8.30;100.00;99064.81;5054205;23;20416;-82
2023/10/27 04:32:58;;;;;;;4.72;1.08;;;;;;;8.35;100.00;99073.06;5037675;28;20051;-82
2023/10/27 04:35:24;;;;;;;1.92;0.75;;;;;;;8.38;100.00;99073.50;4999699;22;20047;-81
2023/10/27 04:37:50;;;;;;;2.87;1.33;;;;;;;8.37;100.00;99068.38;5004916;28;20393;-83
2023/10/27 04:40:18;;;;;;;2.13;0.60;;;;;;;8.28;100.00;99064.19;5005861;28;20464;-83
2023/10/27 04:42:44;;;;;;;0.60;0.53;;;;;;;8.23;100.00;99065.56;4995479;28;20025;-84
2023/10/27 04:45:09;;;;;;;3.00;0.63;;;;;;;8.19;100.00;99084.75;5015805;28;20296;-84
2023/10/27 04:47:35;;;;;;;2.05;0.73;;;;;;;8.26;100.00;99088.28;4955552;28;20436;-83
2023/10/27 04:50:00;;;;;;;2.23;0.63;;;;;;;8.14;100.00;99074.66;5019213;28;20030;-83
2023/10/27 04:52:25;;;;;;;5.03;1.50;;;;;;;8.12;100.00;99078.53;4993218;28;20092;-84
2023/10/27 04:54:51;;;;;;;3.13;0.80;;;;;;;8.08;100.00;99077.25;4933913;28;20260;-84
2023/10/27 04:57:16;;;;;;;2.53;0.90;;;;;;;8.23;100.00;99091.34;4932690;28;20055;-83
2023/10/27 04:59:41;;;;;;;2.20;0.60;;;;;;;8.28;100.00;99094.25;4992248;28;20038;-84
2023/10/27 05:02:07;;;;;;;2.73;0.97;;;;;;;8.23;100.00;99091.34;4913523;28;20038;-84
2023/10/27 05:04:41;;;;;;;1.30;0.77;;;;;;;8.24;100.00;99082.34;4987991;28;20041;-83
2023/10/27 05:07:06;;;;;;;1.58;0.60;;;;;;;8.10;100.00;99080.53;5011704;28;20038;-86
2023/10/27 05:09:32;;;;;;;2.73;0.70;;;;;;;8.20;100.00;99102.34;4957434;28;20028;-84
2023/10/27 05:12:01;;;;;;;3.20;0.90;;;;;;;8.08;100.00;99098.50;4935109;28;20196;-85
2023/10/27 05:14:26;;;;;;;1.92;0.60;;;;;;;7.88;100.00;99088.47;4948032;28;20053;-86
2023/10/27 05:16:51;;;;;;;1.13;0.38;;;;;;;8.05;100.00;99099.72;4945827;28;20086;-85
2023/10/27 05:19:17;;;;;;;2.20;0.80;;;;;;;8.13;100.00;99106.78;4938106;28;20049;-85
2023/10/27 05:21:42;;;;;;;2.40;0.83;;;;;;;8.17;100.00;99105.38;4936304;28;20031;-87
2023/10/27 05:24:09;;;;;;;1.92;0.73;;;;;;;8.11;100.00;99085.69;4921974;28;20067;-86
2023/10/27 05:26:35;;;;;;;5.07;0.77;;;;;;;8.13;100.00;99090.81;4987457;28;20060;-86
2023/10/27 05:29:00;;;;;;;0.73;0.40;;;;;;;8.06;100.00;99093.41;4998349;28;20720;-86
2023/10/27 05:31:26;;;;;;;2.17;0.43;;;;;;;8.12;100.00;99092.63;4983259;28;20057;-85
2023/10/27 05:33:52;;;;;;;2.10;0.30;;;;;;;8.17;100.00;99089.41;4933933;28;20017;-86
2023/10/27 05:36:18;;;;;;;3.80;0.60;;;;;;;8.15;100.00;99088.81;4904621;28;20032;-85
2023/10/27 05:38:43;;;;;;;1.43;0.30;;;;;;;8.21;100.00;99091.53;4979073;28;20033;-85
2023/10/27 05:41:08;;;;;;;0.67;0.50;;;;;;;8.27;100.00;99081.16;4967158;28;20440;-86
2023/10/27 05:43:34;;;;;;;1.87;0.40;;;;;;;8.28;100.00;99077.47;4970855;28;20036;-86
2023/10/27 05:45:59;;;;;;;2.37;0.50;;;;;;;8.29;100.00;99081.78;5011439;28;20121;-87
2023/10/27 05:48:24;;;;;;;1.80;0.57;;;;;;;8.25;100.00;99084.81;5011639;28;20402;-86
2023/10/27 05:50:50;;;;;;;1.33;0.53;;;;;;;8.25;100.00;99084.00;5011527;28;20125;-85
2023/10/27 05:53:15;;;;;;;2.10;0.57;;;;;;;8.21;100.00;99077.41;4964954;28;20088;-86
2023/10/27 05:55:41;;;;;;;2.43;0.43;;;;;;;8.22;100.00;99084.38;4976920;28;20084;-85
2023/10/27 05:58:07;;;;;;;2.25;0.50;;;;;;;8.12;100.00;99081.19;5011150;28;20528;-88
2023/10/27 06:00:32;;;;;;;2.40;0.50;;;;;;;8.21;100.00;99080.06;5011408;28;20053;-85
2023/10/27 06:02:58;;;;;;;2.63;0.57;;;;;;;8.21;100.00;99072.91;4935673;28;20040;-84
2023/10/27 06:05:23;;;;;;;6.17;1.90;;;;;;;8.26;100.00;99075.00;4952975;28;20032;-86
2023/10/27 06:07:49;;;;;;;3.20;1.42;;;;;;;8.30;100.00;99075.47;4986642;28;20084;-85
2023/10/27 06:10:14;;;;;;;1.33;1.20;;;;;;;8.29;100.00;99079.97;4927912;28;20551;-84
2023/10/27 06:12:39;;;;;;;2.83;1.58;;;;;;;8.25;100.00;99082.16;4983623;28;20032;-84
2023/10/27 06:15:05;;;;;;;2.60;1.60;;;;;;;8.28;100.00;99083.63;5008679;28;20030;-84
2023/10/27 06:17:32;;;;;;;1.67;1.30;;;;;;;8.27;100.00;99082.00;4992405;28;20083;-84
2023/10/27 06:19:58;;;;;;;2.20;1.20;;;;;;;8.27;100.00;99092.63;4915223;28;20040;-83
2023/10/27 06:22:23;;;;;;;2.60;1.45;;;;;;;8.21;100.00;99093.34;5024664;28;20394;-84
2023/10/27 06:24:49;;;;;;;2.67;1.13;;;;;;;8.23;100.00;99096.66;4939614;28;20063;-84
2023/10/27 06:27:14;;;;;;;2.57;1.80;;;;;;;8.22;100.00;99095.84;4942993;28;20187;-86
2023/10/27 06:29:39;;;;;;;1.63;1.30;;;;;;;8.27;100.00;99097.13;4937211;28;20272;-85
2023/10/27 06:32:05;;;;;;;4.17;1.40;;;;;;;8.28;100.00;99096.09;4934158;28;20044;-85
2023/10/27 06:34:31;;;;;;;3.80;1.10;;;;;;;8.12;100.00;99083.84;4931489;28;20137;-86
2023/10/27 06:36:58;;;;;;;3.03;0.98;;;;;;;8.23;100.00;99096.66;5014192;28;20044;-83
2023/10/27 06:39:24;;;;;;;3.80;0.98;;;;;;;8.25;100.00;99098.13;4965912;28;20044;-85
2023/10/27 06:41:50;;;;;;;1.50;1.17;;;;;;;8.25;100.00;99094.63;4972177;28;20055;-84
2023/10/27 06:44:15;;;;;;;3.65;0.93;;;;;;;8.31;100.00;99093.91;4968876;28;20042;-83
2023/10/27 06:46:41;;;;;;;3.08;1.20;;;;;;;8.37;100.00;99100.28;4974735;28;20124;-85
2023/10/27 06:49:06;;;;;;;2.33;1.88;;;;;;;8.41;100.00;99098.94;4973523;28;20115;-85
2023/10/27 06:51:32;;;;;;;5.68;1.38;;;;;;;8.40;100.00;99091.97;4969249;28;20060;-85
2023/10/27 06:53:57;;;;;;;1.17;0.90;;;;;;;8.45;100.00;99090.41;5016943;28;20551;-85
2023/10/27 06:56:22;;;;;;;0.70;0.63;;;;;;;8.50;100.00;99099.63;4918444;28;20512;-85
2023/10/27 06:58:48;;;;;;;1.03;0.70;;;;;;;8.47;100.00;99095.50;4957984;28;20041;-85
2023/10/27 07:01:13;;;;;;;2.63;0.73;;;;;;;8.42;100.00;99090.75;4998098;28;20042;-85
2023/10/27 07:03:38;;;;;;;1.97;1.10;;;;;;;8.47;100.00;99097.34;4996917;28;20081;-86
2023/10/27 07:06:04;;;;;;;6.37;1.17;;;;;;;8.47;100.00;99102.66;5005302;28;20034;-85
2023/10/27 07:08:33;;;;;;;2.47;0.82;;;;;;;8.43;100.00;99100.41;5017188;28;20049;-85
2023/10/27 07:10:59;;;;;;;2.60;1.02;;;;;;;8.45;100.00;99106.34;5016849;28;20489;-86
2023/10/27 07:13:25;;;;;;;3.88;1.60;;;;;;;8.50;100.00;99115.56;4976211;28;20136;-85
2023/10/27 07:15:50;;;;;;;2.65;1.42;;;;;;;8.53;100.00;99104.59;4995526;28;20025;-86
2023/10/27 07:18:16;;;;;;;1.73;1.07;;;;;;;8.48;100.00;99114.97;4953397;28;20051;-85
2023/10/27 07:20:41;;;;;;;4.27;1.60;;;;;;;8.48;100.00;99101.66;4950464;28;20031;-85
2023/10/27 07:23:07;;;;;;;2.90;1.15;;;;;;;8.51;100.00;99109.25;4913892;28;20179;-86
2023/10/27 07:25:32;;;;;;;3.17;1.27;;;;;;;8.57;100.00;99101.34;5006282;28;20180;-85
2023/10/27 07:27:57;;;;;;;0.90;0.80;;;;;;;8.58;100.00;99102.16;4955510;28;20303;-85
2023/10/27 07:30:23;;;;;;;1.40;0.80;;;;;;;8.60;100.00;99105.47;4966319;28;20034;-85
2023/10/27 07:32:48;;;;;;;1.67;1.07;;;;;;;8.66;100.00;99112.66;4939835;28;20052;-85
2023/10/27 07:35:14;;;;;;;0.80;0.77;;;;;;;8.71;100.00;99107.63;4913995;28;20040;-85
2023/10/27 07:37:39;;;;;;;1.30;1.20;;;;;;;8.72;100.00;99105.78;4971372;28;20032;-84
2023/10/27 07:40:06;;;;;;;1.77;0.83;;;;;;;8.68;100.00;99101.84;4968454;28;20115;-84
2023/10/27 07:42:32;;;;;;;2.47;1.15;;;;;;;8.76;100.00;99101.75;5010794;28;20120;-85
2023/10/27 07:44:58;;;;;;;1.10;0.82;;;;;;;8.77;100.00;99101.53;5005372;28;20117;-84
2023/10/27 07:47:23;;;;;;;4.20;1.52;;;;;;;8.75;100.00;99094.75;5004826;28;20041;-84
2023/10/27 07:49:50;;;;;;;1.48;1.00;;;;;;;8.83;100.00;99099.97;4964065;28;20120;-84
2023/10/27 07:52:15;;;;;;;3.50;1.10;;;;;;;8.82;100.00;99080.47;4962526;28;20428;-84
2023/10/27 07:54:40;;;;;;;2.40;1.10;;;;;;;8.85;100.00;99081.97;4935417;28;20030;-84
2023/10/27 07:57:06;;;;;;;1.93;1.10;;;;;;;8.86;100.00;99081.75;5013215;28;20036;-84
2023/10/27 07:59:32;;;;;;;1.63;1.00;;;;;;;8.89;100.00;99085.88;4960087;28;20036;-86
2023/10/27 08:02:00;;;;;;;1.35;0.90;;;;;;;8.98;100.00;99083.91;4988209;28;20092;-85
2023/10/27 08:04:25;;;;;;;1.73;0.85;;;;;;;9.11;100.00;99083.16;4906500;28;20059;-84
2023/10/27 08:06:52;;;;;;;4.75;1.30;;;;;;;9.14;100.00;99078.28;4975934;28;20510;-84
2023/10/27 08:09:19;;;;;;;2.55;0.98;;;;;;;9.18;100.00;99074.22;5003876;28;20029;-84
2023/10/27 08:11:48;;;;;;;2.47;0.90;;;;;;;9.30;100.00;99080.66;5013403;28;20061;-84
2023/10/27 08:14:13;;;;;;;1.23;0.73;;;;;;;9.39;100.00;99091.13;5012960;28;20072;-85
2023/10/27 08:16:39;;;;;;;1.23;0.70;;;;;;;9.51;100.00;99090.41;4990570;28;20036;-84
2023/10/27 08:19:04;;;;;;;2.73;1.10;;;;;;;9.52;100.00;99085.91;5007210;28;20285;-83
2023/10/27 08:21:30;;;;;;;3.00;1.37;;;;;;;9.48;100.00;99074.00;4929878;28;20296;-85
2023/10/27 08:23:55;;;;;;;1.73;1.33;;;;;;;9.38;100.00;99062.88;5014382;28;20042;-85
2023/10/27 08:26:20;;;;;;;1.50;1.07;;;;;;;9.62;100.00;99075.72;5003525;28;20118;-85
2023/10/27 08:28:46;;;;;;;1.20;1.10;;;;;;;9.64;100.00;99059.53;5012687;28;20041;-84
2023/10/27 08:31:11;;;;;;;2.30;1.10;;;;;;;9.70;100.00;99061.41;5003919;28;20497;-84
2023/10/27 08:33:36;;;;;;;3.13;1.37;;;;;;;9.63;100.00;99060.56;5011569;28;20492;-85
2023/10/27 08:36:03;;;;;;;2.77;1.23;;;;;;;9.69;100.00;99055.28;4978042;28;20292;-84
2023/10/27 08:38:29;;;;;;;2.22;1.17;;;;;;;9.87;100.00;99067.22;4965516;28;20543;-84
2023/10/27 08:40:55;;;;;;;2.90;1.10;;;;;;;9.93;100.00;99061.09;4983571;28;20040;-85
2023/10/27 08:43:22;;;;;;;;;;;;;;;10.01;100.00;99063.59;4976584;28;20049;-85
2023/10/27 08:45:48;;;;;;;2.42;0.90;;;;;;;10.13;100.00;99058.50;5012486;28;20444;-85
2023/10/27 08:48:14;;;;;;;2.20;1.63;;;;;;;10.07;100.00;99046.78;4963168;28;20057;-84
2023/10/27 08:50:40;;;;;;;1.70;1.27;;;;;;;10.09;100.00;99050.09;4971476;28;20505;-84
2023/10/27 08:53:09;;;;;;;1.88;1.23;;;;;;;9.99;100.00;99028.28;4993639;28;20024;-84
2023/10/27 08:55:35;;;;;;;2.78;1.45;;;;;;;10.06;100.00;99039.81;5026437;28;20034;-85
2023/10/27 08:58:01;;;;;;;6.15;2.10;;;;;;;10.20;100.00;99048.66;4977522;28;20092;-85
2023/10/27 09:00:26;;;;;;;4.40;1.52;;;;;;;10.12;100.00;99038.19;5012099;28;20026;-84
2023/10/27 09:02:52;;;;;;;3.75;1.63;;;;;;;9.89;100.00;99027.88;4962224;28;20216;-84
2023/10/27 09:05:17;;;;;;;3.47;1.38;;;;;;;9.95;100.00;99032.41;5011278;28;20021;-84
2023/10/27 09:07:43;;;;;;;2.28;1.20;;;;;;;9.84;100.00;99027.66;4987710;28;20093;-84
2023/10/27 09:10:09;;;;;;;3.30;1.40;;;;;;;10.18;100.00;99037.38;5007543;28;20030;-85
2023/10/27 09:12:38;;;;;;;3.53;1.20;;;;;;;10.23;100.00;99039.44;4971188;28;20176;-84
2023/10/27 09:15:12;;;;;;;1.83;1.25;;;;;;;10.57;100.00;99054.50;4994877;28;20097;-85
2023/10/27 09:18:08;;;;;;;1.73;1.20;;;;;;;10.70;100.00;99054.53;4976701;28;20097;-84
2023/10/27 09:20:46;;;;;;;3.38;1.25;;;;;;;10.82;100.00;99049.41;4955617;28;20046;-84
2023/10/27 09:23:11;;;;;;;3.33;1.40;;;;;;;10.67;100.00;99019.41;4972071;28;20034;-84
2023/10/27 09:25:37;;;;;;;4.90;1.40;;;;;;;10.70;100.00;99013.66;4971634;28;20585;-84
2023/10/27 09:28:08;;;;;;;3.27;1.23;;;;;;;10.80;100.00;99024.75;4971272;28;20046;-83
2023/10/27 09:30:39;;;;;;;1.20;1.10;;;;;;;10.74;100.00;99012.22;4971429;28;20066;-85
2023/10/27 09:33:26;;;;;;;2.30;1.10;;;;;;;10.93;100.00;99018.56;4939393;28;20066;-84
2023/10/27 09:35:53;;;;;;;4.07;1.25;;;;;;;10.99;100.00;99012.41;4970242;28;20031;-85
2023/10/27 09:38:20;;;;;;;2.30;1.13;;;;;;;10.96;100.00;98991.47;4972464;28;20043;-84
2023/10/27 09:40:46;;;;;;;1.75;0.98;;;;;;;10.94;100.00;98982.84;4956518;28;20019;-84
2023/10/27 09:43:19;;;;;;;3.03;1.17;;;;;;;11.01;100.00;98986.34;4959115;28;20051;-85
2023/10/27 09:45:53;;;;;;;1.88;1.00;;;;;;;11.01;100.00;98982.84;4966498;28;20047;-83
2023/10/27 09:48:24;;;;;;;1.60;0.88;;;;;;;11.04;100.00;98982.41;4943090;28;20125;-83
2023/10/27 09:50:57;;;;;;;3.30;1.23;;;;;;;11.08;100.00;98989.00;4975497;28;20057;-84
2023/10/27 09:53:24;;;;;;;2.58;1.13;;;;;;;11.00;100.00;98982.00;4943665;28;20045;-84
2023/10/27 09:55:50;;;;;;;3.22;1.30;;;;;;;10.36;100.00;98943.47;4977253;28;20019;-84
2023/10/27 09:58:15;;;;;;;3.45;1.13;;;;;;;10.64;100.00;98985.94;4974157;28;20034;-84
2023/10/27 10:00:41;;;;;;;1.55;1.10;;;;;;;10.69;100.00;98991.50;5015471;28;20055;-84
2023/10/27 10:03:07;;;;;;;2.75;1.30;;;;;;;10.81;100.00;98993.53;4974468;28;20030;-83
2023/10/27 10:06:23;;;;;;;3.72;1.08;;;;;;;10.65;100.00;98958.25;4990593;28;20406;-85
2023/10/27 10:09:09;;;;;;;1.20;0.50;;;;;;;10.25;100.00;98904.03;4979837;28;20038;-84
2023/10/27 10:11:47;;;;;;;1.67;0.70;;;;;;;10.46;100.00;98940.38;5015555;28;20497;-84
2023/10/27 10:14:37;;;;;;;0.70;0.50;;;;;;;10.16;100.00;98884.78;5031724;28;20513;-83
2023/10/27 10:17:04;;;;;;;1.33;0.82;;;;;;;10.44;100.00;98913.09;4968083;28;20044;-86
2023/10/27 10:19:49;;;;;;;3.83;0.82;;;;;;;10.18;100.00;98882.69;4982256;28;20029;-84
2023/10/27 10:22:42;;;;;;;3.22;1.27;;;;;;;9.94;100.00;98854.81;5004064;28;20037;-84
2023/10/27 10:25:28;;;;;;;2.10;0.85;;;;;;;9.72;100.00;98857.66;5014463;28;20103;-84
2023/10/27 10:28:09;;;;;;;2.10;0.95;;;;;;;9.83;100.00;98885.56;4925931;28;20050;-85
2023/10/27 10:30:37;;;;;;;10.38;3.10;;;;;;;10.00;100.00;98899.31;5010540;28;20030;-84
2023/10/27 10:33:23;;;;;;;3.63;1.67;;;;;;;10.08;100.00;98909.78;4936308;28;20028;-84
2023/10/27 10:35:50;;;;;;;2.40;1.30;;;;;;;10.26;100.00;98946.50;4982390;23;20059;-78
2023/10/27 10:38:21;;;;;;;5.07;1.60;;;;;;;10.11;100.00;98932.53;4965962;28;20092;-78
2023/10/27 10:40:55;;;;;;;6.10;2.42;;;;;;;10.08;100.00;98939.09;5004073;28;20033;-78
2023/10/27 10:43:24;;;;;;;3.72;2.05;;;;;;;10.21;100.00;98969.47;4937852;28;20039;-79
2023/10/27 10:45:53;;;;;;;5.40;1.98;;;;;;;9.79;100.00;98928.81;4966415;28;20034;-79
2023/10/27 10:48:20;;;;;;;9.02;3.83;;;;;;;9.89;100.00;98948.72;4931233;28;20043;-78
2023/10/27 10:50:46;;;;;;;;;;;;;;;9.92;100.00;98948.31;4952025;28;20092;-79
2023/10/27 10:53:16;;;;;;;4.35;2.33;;;;;;;9.78;100.00;98940.50;4958433;28;19918;-79
2023/10/27 10:55:46;;;;;;;6.47;3.30;;;;;;;9.59;100.00;98932.22;4947088;28;20750;-79
2023/10/27 10:58:25;;;;;;;5.38;1.90;;;;;;;9.69;100.00;98964.66;4945231;29;20043;-78
2023/10/27 11:00:55;;;;;;;6.85;3.22;;;;;;;9.41;100.00;98978.09;4943690;29;20519;-78
2023/10/27 11:03:23;;;;;;;2.95;0.90;;;;;;;9.03;100.00;98964.34;4950210;28;20043;-79
2023/10/27 11:05:54;;;;;;;1.42;1.10;;;;;;;9.20;100.00;99012.78;4932390;28;20019;-78
2023/10/27 11:08:27;;;;;;;2.05;1.08;;;;;;;9.23;100.00;99026.53;4934138;28;20039;-79
2023/10/27 11:11:02;;;;;;;3.25;1.10;;;;;;;9.22;100.00;99026.72;4945441;29;20066;-78
2023/10/27 11:13:29;;;;;;;1.90;0.77;;;;;;;9.38;100.00;99036.25;4939932;28;20123;-79
2023/10/27 11:15:55;;;;;;;3.95;0.95;;;;;;;9.41;100.00;99035.84;4944857;28;20023;-78
2023/10/27 11:18:20;;;;;;;4.53;1.00;;;;;;;9.42;100.00;99027.66;4965686;28;20531;-79
2023/10/27 11:20:47;;;;;;;3.67;0.90;;;;;;;9.67;100.00;99043.97;4976068;28;20400;-78
2023/10/27 11:23:15;;;;;;;5.47;2.33;;;;;;;9.44;100.00;99014.16;4942118;28;20039;-78
2023/10/27 11:25:41;;;;;;;6.03;1.90;;;;;;;9.51;100.00;99033.66;4949672;28;20441;-79
2023/10/27 11:28:24;;;;;;;;;;;;;;;9.67;100.00;99051.97;4934055;29;20096;-79
2023/10/27 11:31:12;;;;;;;2.22;0.98;;;;;;;9.54;100.00;99035.91;4943920;29;19915;-78
2023/10/27 11:34:03;;;;;;;1.52;1.00;;;;;;;9.24;100.00;99014.84;4957746;28;20047;-79